THY4KY SAEZ-LTFM
Flight info
| Callsign | THY4KY |
|---|---|
| Flight time | N/A |
| Altitude | 33000 |
| Route | PAPIX1J PAPIX DCT DUR DCT COA DCT ITBEB UN857 VUPIP UL206 VRI UL330 EMTUP/N0481F350 UL330 UDIGA DCT 01N020W 09N010W/N0472F370 DCT RIPUL DCT 20N000E DCT BERTI DCT GRT/N0459F390 DCT BONAR DCT ATV UN604 AMANI UG8 SUDES UN604 INBET |
| Aircraft | A346/H-SDE2E3FGHIJ3J4J5M1RWXY/LB1D1 |
Departure
| Time | N/A |
|---|---|
| Airport | Ezeiza International Airport - Ministro Pistarini (SAEZ) |
Arrival
| Time | 2026-05-04 11:46 |
|---|---|
| Airport | İstanbul Airport (LTFM) |
| Time | Latitude | Longitude | Altitude | Speed | Heading |
|---|---|---|---|---|---|
| 2026-05-04 06:38 | 14.91300 | -4.41604 | 32917 ft | 493 kts | 44° |
| 2026-05-04 06:38 | 14.93709 | -4.39068 | 32919 ft | 492 kts | 44° |
| 2026-05-04 06:40 | 15.12866 | -4.18856 | 32919 ft | 493 kts | 44° |
| 2026-05-04 06:40 | 15.17681 | -4.13769 | 32920 ft | 493 kts | 44° |
| 2026-05-04 06:41 | 15.22459 | -4.08717 | 32920 ft | 493 kts | 45° |
| 2026-05-04 06:41 | 15.27266 | -4.03630 | 32921 ft | 494 kts | 45° |
| 2026-05-04 06:42 | 15.32078 | -3.98534 | 32927 ft | 494 kts | 45° |
| 2026-05-04 06:44 | 15.51304 | -3.78138 | 32934 ft | 495 kts | 44° |
| 2026-05-04 06:44 | 15.56102 | -3.73038 | 32934 ft | 496 kts | 44° |
| 2026-05-04 06:45 | 15.60929 | -3.67905 | 32937 ft | 497 kts | 44° |
| 2026-05-04 06:45 | 15.65756 | -3.62769 | 32937 ft | 497 kts | 44° |
| 2026-05-04 06:46 | 15.70572 | -3.57638 | 32940 ft | 498 kts | 44° |
| 2026-05-04 06:46 | 15.75399 | -3.52493 | 32941 ft | 498 kts | 44° |
| 2026-05-04 06:48 | 15.94715 | -3.31873 | 32943 ft | 498 kts | 44° |
| 2026-05-04 06:50 | 16.14030 | -3.11187 | 32938 ft | 499 kts | 44° |
| 2026-05-04 06:51 | 16.18862 | -3.06002 | 32943 ft | 498 kts | 44° |
| 2026-05-04 06:51 | 16.23690 | -3.00821 | 32946 ft | 498 kts | 44° |
| 2026-05-04 06:52 | 16.28481 | -2.95674 | 32945 ft | 498 kts | 44° |
| 2026-05-04 06:52 | 16.33291 | -2.90501 | 32942 ft | 498 kts | 44° |
| 2026-05-04 06:53 | 16.38110 | -2.85316 | 32944 ft | 499 kts | 44° |
| 2026-05-04 06:53 | 16.42940 | -2.80115 | 32940 ft | 498 kts | 44° |
| 2026-05-04 06:54 | 16.47748 | -2.74935 | 32940 ft | 498 kts | 44° |
| 2026-05-04 06:54 | 16.52569 | -2.69734 | 32943 ft | 498 kts | 44° |
| 2026-05-04 06:55 | 16.57358 | -2.64563 | 32938 ft | 497 kts | 43° |
| 2026-05-04 06:55 | 16.62171 | -2.59364 | 32936 ft | 497 kts | 43° |
| 2026-05-04 06:57 | 16.81345 | -2.38616 | 32928 ft | 497 kts | 43° |
| 2026-05-04 06:58 | 16.86143 | -2.33412 | 32926 ft | 497 kts | 43° |
| 2026-05-04 06:58 | 16.90930 | -2.28218 | 32927 ft | 497 kts | 43° |
| 2026-05-04 06:59 | 16.95746 | -2.22987 | 32925 ft | 497 kts | 43° |
| 2026-05-04 06:59 | 17.00546 | -2.17769 | 32924 ft | 498 kts | 43° |
| 2026-05-04 07:01 | 17.19717 | -1.96892 | 32922 ft | 497 kts | 43° |
| 2026-05-04 07:02 | 17.24494 | -1.91679 | 32924 ft | 497 kts | 43° |
| 2026-05-04 07:02 | 17.29271 | -1.86464 | 32926 ft | 498 kts | 43° |
| 2026-05-04 07:03 | 17.34053 | -1.81235 | 32929 ft | 497 kts | 43° |
| 2026-05-04 07:03 | 17.38819 | -1.76024 | 32931 ft | 497 kts | 43° |
| 2026-05-04 07:04 | 17.43598 | -1.70790 | 32934 ft | 497 kts | 43° |
| 2026-05-04 07:04 | 17.48374 | -1.65561 | 32935 ft | 497 kts | 43° |
| 2026-05-04 07:05 | 17.53153 | -1.60318 | 32936 ft | 497 kts | 43° |
| 2026-05-04 07:05 | 17.57933 | -1.55073 | 32939 ft | 497 kts | 43° |
| 2026-05-04 07:06 | 17.65076 | -1.47228 | 32943 ft | 497 kts | 43° |
| 2026-05-04 07:07 | 17.69846 | -1.41983 | 32946 ft | 497 kts | 43° |
| 2026-05-04 07:09 | 17.88894 | -1.20990 | 32957 ft | 497 kts | 43° |
| 2026-05-04 07:09 | 17.93671 | -1.15720 | 32959 ft | 497 kts | 43° |
| 2026-05-04 07:10 | 17.98398 | -1.10496 | 32961 ft | 497 kts | 43° |
| 2026-05-04 07:12 | 18.17446 | -0.89398 | 32973 ft | 498 kts | 43° |
| 2026-05-04 07:12 | 18.22211 | -0.84108 | 32977 ft | 497 kts | 43° |
| 2026-05-04 07:13 | 18.26939 | -0.78857 | 32982 ft | 496 kts | 43° |
| 2026-05-04 07:13 | 18.31693 | -0.73573 | 32992 ft | 497 kts | 43° |
| 2026-05-04 07:14 | 18.43535 | -0.60389 | 33001 ft | 496 kts | 43° |
| 2026-05-04 07:15 | 18.48280 | -0.55098 | 33006 ft | 496 kts | 43° |
| 2026-05-04 07:15 | 18.53021 | -0.49806 | 33009 ft | 495 kts | 43° |
| 2026-05-04 07:16 | 18.57713 | -0.44567 | 33008 ft | 495 kts | 43° |
| 2026-05-04 07:16 | 18.62440 | -0.39282 | 33013 ft | 496 kts | 43° |
| 2026-05-04 07:17 | 18.67160 | -0.34001 | 33007 ft | 495 kts | 43° |
| 2026-05-04 07:17 | 18.71873 | -0.28724 | 33010 ft | 494 kts | 43° |
| 2026-05-04 07:18 | 18.76585 | -0.23440 | 33013 ft | 494 kts | 43° |
| 2026-05-04 07:18 | 18.81299 | -0.18153 | 33010 ft | 494 kts | 43° |
| 2026-05-04 07:19 | 18.86002 | -0.12874 | 33013 ft | 495 kts | 43° |
| 2026-05-04 07:19 | 18.90706 | -0.07588 | 33008 ft | 494 kts | 43° |
| 2026-05-04 07:20 | 18.95409 | -0.02297 | 33008 ft | 494 kts | 43° |
| 2026-05-04 07:20 | 19.00114 | 0.02998 | 33007 ft | 494 kts | 43° |
| 2026-05-04 07:22 | 19.18846 | 0.24132 | 33014 ft | 493 kts | 43° |
| 2026-05-04 07:23 | 19.23538 | 0.29438 | 33015 ft | 491 kts | 43° |
| 2026-05-04 07:23 | 19.28187 | 0.34701 | 33014 ft | 491 kts | 43° |
| 2026-05-04 07:24 | 19.32842 | 0.39975 | 33016 ft | 491 kts | 43° |
| 2026-05-04 07:24 | 19.37502 | 0.45255 | 33020 ft | 491 kts | 43° |
| 2026-05-04 07:26 | 19.56099 | 0.66389 | 33017 ft | 491 kts | 43° |
| 2026-05-04 07:27 | 19.60732 | 0.71667 | 33023 ft | 490 kts | 43° |
| 2026-05-04 07:27 | 19.65368 | 0.76951 | 33023 ft | 490 kts | 43° |
| 2026-05-04 07:28 | 19.70015 | 0.82253 | 33024 ft | 489 kts | 43° |
| 2026-05-04 07:28 | 19.74618 | 0.87511 | 33024 ft | 488 kts | 43° |
| 2026-05-04 07:29 | 19.79227 | 0.92779 | 33029 ft | 487 kts | 43° |
| 2026-05-04 07:29 | 19.83837 | 0.98053 | 33023 ft | 488 kts | 43° |
| 2026-05-04 07:30 | 19.88438 | 1.03322 | 33024 ft | 486 kts | 43° |
| 2026-05-04 07:30 | 19.93032 | 1.08585 | 33021 ft | 485 kts | 43° |
| 2026-05-04 07:31 | 19.97629 | 1.13860 | 33022 ft | 485 kts | 43° |
| 2026-05-04 07:33 | 20.15978 | 1.34963 | 33047 ft | 486 kts | 43° |
| 2026-05-04 07:33 | 20.20567 | 1.40257 | 33051 ft | 485 kts | 43° |
| 2026-05-04 07:34 | 20.25136 | 1.45525 | 33050 ft | 486 kts | 43° |
| 2026-05-04 07:34 | 20.29705 | 1.50800 | 33049 ft | 487 kts | 43° |
| 2026-05-04 07:35 | 20.34299 | 1.56110 | 33047 ft | 486 kts | 43° |
| 2026-05-04 07:35 | 20.38853 | 1.61380 | 33048 ft | 486 kts | 43° |
| 2026-05-04 07:36 | 20.43437 | 1.66686 | 33046 ft | 486 kts | 43° |
| 2026-05-04 07:38 | 20.61711 | 1.87901 | 33052 ft | 485 kts | 43° |
| 2026-05-04 07:38 | 20.66246 | 1.93176 | 33054 ft | 486 kts | 43° |
| 2026-05-04 07:39 | 20.70810 | 1.98492 | 33053 ft | 486 kts | 43° |
| 2026-05-04 07:39 | 20.75379 | 2.03817 | 33053 ft | 485 kts | 43° |
| 2026-05-04 07:40 | 20.79932 | 2.09130 | 33049 ft | 485 kts | 43° |
| 2026-05-04 07:40 | 20.84487 | 2.14449 | 33049 ft | 486 kts | 43° |
| 2026-05-04 07:41 | 20.89039 | 2.19771 | 33047 ft | 486 kts | 43° |
| 2026-05-04 07:41 | 20.93611 | 2.25123 | 33047 ft | 486 kts | 43° |
| 2026-05-04 07:42 | 20.98136 | 2.30425 | 33047 ft | 486 kts | 43° |
| 2026-05-04 07:42 | 21.02704 | 2.35780 | 33044 ft | 485 kts | 43° |
| 2026-05-04 07:43 | 21.07225 | 2.41086 | 33043 ft | 486 kts | 43° |
| 2026-05-04 07:43 | 21.11793 | 2.46453 | 33041 ft | 485 kts | 43° |
| 2026-05-04 07:44 | 21.16328 | 2.51787 | 33044 ft | 485 kts | 43° |
| 2026-05-04 07:44 | 21.20865 | 2.57130 | 33043 ft | 485 kts | 43° |
| 2026-05-04 07:45 | 21.25408 | 2.62481 | 33047 ft | 485 kts | 43° |
| 2026-05-04 07:45 | 21.29950 | 2.67840 | 33049 ft | 485 kts | 43° |
| 2026-05-04 07:46 | 21.34471 | 2.73178 | 33051 ft | 485 kts | 43° |
| 2026-05-04 07:46 | 21.39025 | 2.78558 | 33055 ft | 486 kts | 43° |
| 2026-05-04 07:47 | 21.43544 | 2.83905 | 33053 ft | 486 kts | 43° |
| 2026-05-04 07:49 | 21.61627 | 3.05349 | 33061 ft | 485 kts | 43° |
| 2026-05-04 07:49 | 21.66157 | 3.10737 | 33057 ft | 485 kts | 43° |
| 2026-05-04 07:50 | 21.70666 | 3.16103 | 33054 ft | 485 kts | 43° |
| 2026-05-04 07:50 | 21.75191 | 3.21493 | 33047 ft | 485 kts | 43° |
| 2026-05-04 07:51 | 21.79700 | 3.26871 | 33048 ft | 485 kts | 42° |
| 2026-05-04 07:51 | 21.84204 | 3.32248 | 33045 ft | 485 kts | 43° |
| 2026-05-04 07:52 | 21.88707 | 3.37629 | 33050 ft | 485 kts | 42° |
| 2026-05-04 07:52 | 21.93229 | 3.43035 | 33044 ft | 484 kts | 43° |
| 2026-05-04 07:54 | 22.11212 | 3.64602 | 33034 ft | 484 kts | 42° |
| 2026-05-04 07:55 | 22.15710 | 3.70011 | 33031 ft | 484 kts | 43° |
| 2026-05-04 07:55 | 22.20221 | 3.75440 | 33032 ft | 484 kts | 43° |
| 2026-05-04 07:56 | 22.24705 | 3.80844 | 33032 ft | 484 kts | 43° |
| 2026-05-04 07:56 | 22.29191 | 3.86254 | 33033 ft | 485 kts | 43° |
| 2026-05-04 07:57 | 22.33676 | 3.91669 | 33036 ft | 485 kts | 43° |
| 2026-05-04 07:57 | 22.38175 | 3.97107 | 33040 ft | 485 kts | 43° |
| 2026-05-04 07:58 | 22.42644 | 4.02515 | 33046 ft | 485 kts | 43° |
| 2026-05-04 07:58 | 22.47137 | 4.07955 | 33049 ft | 485 kts | 43° |
| 2026-05-04 07:59 | 22.51628 | 4.13401 | 33055 ft | 486 kts | 43° |
| 2026-05-04 07:59 | 22.56125 | 4.18861 | 33072 ft | 486 kts | 43° |
| 2026-05-04 08:00 | 22.60616 | 4.24316 | 33094 ft | 486 kts | 43° |
| 2026-05-04 08:02 | 22.78530 | 4.46137 | 33136 ft | 486 kts | 43° |
| 2026-05-04 08:02 | 22.83019 | 4.51623 | 33128 ft | 486 kts | 43° |
| 2026-05-04 08:03 | 22.87517 | 4.57125 | 33126 ft | 486 kts | 43° |
| 2026-05-04 08:03 | 22.91970 | 4.62575 | 33132 ft | 487 kts | 43° |
| 2026-05-04 08:04 | 22.96455 | 4.68072 | 33134 ft | 487 kts | 43° |
| 2026-05-04 08:04 | 23.00957 | 4.73596 | 33143 ft | 487 kts | 43° |
| 2026-05-04 08:05 | 23.05435 | 4.79095 | 33154 ft | 486 kts | 43° |
| 2026-05-04 08:05 | 23.09908 | 4.84594 | 33162 ft | 486 kts | 43° |
| 2026-05-04 08:06 | 23.14387 | 4.90109 | 33166 ft | 486 kts | 43° |
| 2026-05-04 08:06 | 23.18844 | 4.95599 | 33172 ft | 486 kts | 43° |
| 2026-05-04 08:08 | 23.36700 | 5.17665 | 33200 ft | 486 kts | 42° |
| 2026-05-04 08:11 | 23.56753 | 5.42556 | 33247 ft | 485 kts | 42° |
| 2026-05-04 08:11 | 23.63399 | 5.50835 | 33253 ft | 486 kts | 42° |
| 2026-05-04 08:12 | 23.67860 | 5.56398 | 33261 ft | 486 kts | 43° |
| 2026-05-04 08:12 | 23.72275 | 5.61912 | 33263 ft | 485 kts | 42° |
| 2026-05-04 08:13 | 23.76712 | 5.67459 | 33264 ft | 485 kts | 43° |
| 2026-05-04 08:13 | 23.81139 | 5.72999 | 33273 ft | 485 kts | 43° |
| 2026-05-04 08:14 | 23.85579 | 5.78561 | 33273 ft | 485 kts | 43° |
| 2026-05-04 08:16 | 24.03260 | 6.00777 | 33242 ft | 485 kts | 43° |
| 2026-05-04 08:16 | 24.07550 | 6.06184 | 33249 ft | 484 kts | 43° |
| 2026-05-04 08:17 | 24.11957 | 6.11743 | 33253 ft | 484 kts | 43° |
| 2026-05-04 08:17 | 24.16373 | 6.17318 | 33256 ft | 485 kts | 43° |
| 2026-05-04 08:19 | 24.33962 | 6.39598 | 33245 ft | 483 kts | 43° |
| 2026-05-04 08:20 | 24.38335 | 6.45150 | 33239 ft | 483 kts | 43° |
| 2026-05-04 08:20 | 24.42728 | 6.50736 | 33236 ft | 483 kts | 43° |
| 2026-05-04 08:21 | 24.47116 | 6.56323 | 33233 ft | 483 kts | 43° |
| 2026-05-04 08:21 | 24.51497 | 6.61908 | 33231 ft | 483 kts | 43° |
| 2026-05-04 08:22 | 24.55881 | 6.67504 | 33227 ft | 483 kts | 43° |
| 2026-05-04 08:24 | 24.73356 | 6.89865 | 33232 ft | 483 kts | 44° |
| 2026-05-04 08:24 | 24.77725 | 6.95471 | 33231 ft | 483 kts | 44° |
| 2026-05-04 08:25 | 24.82088 | 7.01080 | 33229 ft | 483 kts | 44° |
| 2026-05-04 08:25 | 24.86445 | 7.06684 | 33233 ft | 482 kts | 43° |
| 2026-05-04 08:27 | 25.04556 | 7.28320 | 33275 ft | 481 kts | 38° |
| 2026-05-04 08:28 | 25.09307 | 7.33512 | 33273 ft | 480 kts | 38° |
| 2026-05-04 08:28 | 25.14056 | 7.38719 | 33266 ft | 480 kts | 38° |
| 2026-05-04 08:29 | 25.18794 | 7.43924 | 33271 ft | 479 kts | 38° |
| 2026-05-04 08:31 | 25.37676 | 7.64724 | 33283 ft | 480 kts | 38° |
| 2026-05-04 08:33 | 25.56525 | 7.85587 | 33296 ft | 479 kts | 39° |
| 2026-05-04 08:35 | 25.75373 | 8.06548 | 33255 ft | 480 kts | 39° |
| 2026-05-04 08:35 | 25.80053 | 8.11769 | 33239 ft | 480 kts | 39° |
| 2026-05-04 08:37 | 25.96518 | 8.30184 | 33212 ft | 480 kts | 39° |
| 2026-05-04 08:38 | 26.01197 | 8.35431 | 33202 ft | 479 kts | 39° |
| 2026-05-04 08:38 | 26.05895 | 8.40705 | 33186 ft | 480 kts | 39° |
| 2026-05-04 08:40 | 26.24640 | 8.61819 | 33129 ft | 479 kts | 39° |
| 2026-05-04 08:41 | 26.29312 | 8.67094 | 33116 ft | 479 kts | 39° |
| 2026-05-04 08:41 | 26.33969 | 8.72360 | 33114 ft | 480 kts | 39° |
| 2026-05-04 08:42 | 26.38644 | 8.77654 | 33109 ft | 480 kts | 40° |
| 2026-05-04 08:42 | 26.43344 | 8.82984 | 33103 ft | 480 kts | 40° |
| 2026-05-04 08:43 | 26.48001 | 8.88271 | 33101 ft | 480 kts | 40° |
| 2026-05-04 08:43 | 26.52677 | 8.93588 | 33097 ft | 480 kts | 40° |
| 2026-05-04 08:44 | 26.57330 | 8.98883 | 33089 ft | 480 kts | 40° |
| 2026-05-04 08:46 | 26.76026 | 9.20222 | 33070 ft | 480 kts | 40° |
| 2026-05-04 08:46 | 26.80685 | 9.25558 | 33074 ft | 480 kts | 40° |
| 2026-05-04 08:47 | 26.85344 | 9.30899 | 33081 ft | 480 kts | 40° |
| 2026-05-04 08:47 | 26.89992 | 9.36236 | 33075 ft | 480 kts | 40° |
| 2026-05-04 08:48 | 26.94648 | 9.41586 | 33080 ft | 480 kts | 40° |
| 2026-05-04 08:48 | 26.99294 | 9.46937 | 33079 ft | 479 kts | 40° |
| 2026-05-04 08:49 | 27.03931 | 9.52278 | 33089 ft | 480 kts | 40° |
| 2026-05-04 08:50 | 27.20160 | 9.71034 | 33101 ft | 479 kts | 41° |
| 2026-05-04 08:51 | 27.24799 | 9.76411 | 33107 ft | 479 kts | 41° |
| 2026-05-04 08:51 | 27.29436 | 9.81791 | 33110 ft | 478 kts | 41° |
| 2026-05-04 08:52 | 27.34060 | 9.87163 | 33111 ft | 479 kts | 41° |
| 2026-05-04 08:52 | 27.38689 | 9.92547 | 33117 ft | 478 kts | 41° |
| 2026-05-04 08:54 | 27.57153 | 10.14097 | 33129 ft | 478 kts | 41° |
| 2026-05-04 08:55 | 27.61737 | 10.19463 | 33129 ft | 478 kts | 41° |
| 2026-05-04 08:55 | 27.66340 | 10.24859 | 33133 ft | 478 kts | 41° |
| 2026-05-04 09:01 | 28.14627 | 10.81899 | 33170 ft | 480 kts | 43° |
| 2026-05-04 09:01 | 28.19230 | 10.87381 | 33172 ft | 480 kts | 43° |
| 2026-05-04 09:02 | 28.23830 | 10.92862 | 33173 ft | 480 kts | 43° |
| 2026-05-04 09:02 | 28.28435 | 10.98358 | 33175 ft | 480 kts | 43° |
| 2026-05-04 09:03 | 28.33024 | 11.03841 | 33176 ft | 481 kts | 43° |
| 2026-05-04 09:03 | 28.37639 | 11.09364 | 33179 ft | 481 kts | 43° |
| 2026-05-04 09:04 | 28.42226 | 11.14860 | 33181 ft | 481 kts | 43° |
| 2026-05-04 09:04 | 28.46837 | 11.20392 | 33182 ft | 481 kts | 43° |
| 2026-05-04 09:05 | 28.51444 | 11.25928 | 33184 ft | 481 kts | 43° |
| 2026-05-04 09:05 | 28.56031 | 11.31447 | 33184 ft | 481 kts | 43° |
| 2026-05-04 09:06 | 28.60598 | 11.36950 | 33184 ft | 481 kts | 43° |
| 2026-05-04 09:08 | 28.78899 | 11.59073 | 33180 ft | 480 kts | 43° |
| 2026-05-04 09:08 | 28.83463 | 11.64609 | 33182 ft | 479 kts | 42° |
| 2026-05-04 09:09 | 28.88046 | 11.70175 | 33183 ft | 479 kts | 43° |
| 2026-05-04 09:09 | 28.92591 | 11.75704 | 33185 ft | 479 kts | 43° |
| 2026-05-04 09:10 | 28.97150 | 11.81258 | 33184 ft | 479 kts | 43° |
| 2026-05-04 09:10 | 29.01689 | 11.86794 | 33185 ft | 478 kts | 43° |
| 2026-05-04 09:11 | 29.06206 | 11.92309 | 33185 ft | 479 kts | 43° |
| 2026-05-04 09:11 | 29.10772 | 11.97894 | 33185 ft | 479 kts | 43° |
| 2026-05-04 09:12 | 29.15298 | 12.03437 | 33184 ft | 479 kts | 43° |
| 2026-05-04 09:14 | 29.33412 | 12.25702 | 33191 ft | 478 kts | 43° |
| 2026-05-04 09:14 | 29.37926 | 12.31266 | 33191 ft | 478 kts | 43° |
| 2026-05-04 09:15 | 29.42445 | 12.36848 | 33193 ft | 478 kts | 43° |
| 2026-05-04 09:15 | 29.46958 | 12.42433 | 33195 ft | 477 kts | 43° |
| 2026-05-04 09:17 | 29.67197 | 12.67558 | 33198 ft | 478 kts | 43° |
| 2026-05-04 09:18 | 29.71708 | 12.73182 | 33200 ft | 477 kts | 43° |
| 2026-05-04 09:18 | 29.76202 | 12.78792 | 33201 ft | 477 kts | 43° |
| 2026-05-04 09:19 | 29.80697 | 12.84409 | 33202 ft | 477 kts | 43° |
| 2026-05-04 09:19 | 29.85158 | 12.89993 | 33203 ft | 477 kts | 43° |
| 2026-05-04 09:20 | 29.89659 | 12.95635 | 33205 ft | 477 kts | 43° |
| 2026-05-04 09:20 | 29.94133 | 13.01251 | 33204 ft | 477 kts | 43° |
| 2026-05-04 09:21 | 29.98630 | 13.06903 | 33206 ft | 477 kts | 43° |
| 2026-05-04 09:21 | 30.03099 | 13.12531 | 33209 ft | 477 kts | 43° |
| 2026-05-04 09:22 | 30.07559 | 13.18154 | 33213 ft | 477 kts | 43° |
| 2026-05-04 09:22 | 30.12031 | 13.23800 | 33211 ft | 477 kts | 43° |
| 2026-05-04 09:23 | 30.16507 | 13.29457 | 33214 ft | 477 kts | 43° |
| 2026-05-04 09:23 | 30.20957 | 13.35089 | 33209 ft | 477 kts | 43° |
| 2026-05-04 09:25 | 30.38798 | 13.57752 | 33211 ft | 476 kts | 43° |
| 2026-05-04 09:26 | 30.43237 | 13.63463 | 33211 ft | 477 kts | 43° |
| 2026-05-04 09:26 | 30.47660 | 13.69188 | 33210 ft | 477 kts | 44° |
| 2026-05-04 09:27 | 30.52084 | 13.74917 | 33212 ft | 478 kts | 44° |
| 2026-05-04 09:27 | 30.56482 | 13.80616 | 33214 ft | 477 kts | 44° |
| 2026-05-04 09:28 | 30.60908 | 13.86357 | 33214 ft | 477 kts | 44° |
| 2026-05-04 09:28 | 30.65328 | 13.92100 | 33211 ft | 477 kts | 43° |
| 2026-05-04 09:29 | 30.69739 | 13.97835 | 33209 ft | 477 kts | 43° |
| 2026-05-04 09:29 | 30.74140 | 14.03568 | 33208 ft | 477 kts | 43° |
| 2026-05-04 09:30 | 30.78561 | 14.09334 | 33211 ft | 477 kts | 43° |
| 2026-05-04 09:30 | 30.82976 | 14.15105 | 33214 ft | 477 kts | 43° |
| 2026-05-04 09:31 | 30.87383 | 14.20872 | 33216 ft | 477 kts | 43° |
| 2026-05-04 09:31 | 30.91783 | 14.26638 | 33216 ft | 477 kts | 43° |
| 2026-05-04 09:32 | 30.96178 | 14.32407 | 33218 ft | 478 kts | 43° |
| 2026-05-04 09:34 | 31.13736 | 14.55538 | 33217 ft | 476 kts | 43° |
| 2026-05-04 09:34 | 31.18110 | 14.61319 | 33216 ft | 477 kts | 43° |
| 2026-05-04 09:35 | 31.22496 | 14.67129 | 33213 ft | 477 kts | 44° |
| 2026-05-04 09:35 | 31.26885 | 14.72951 | 33215 ft | 478 kts | 43° |
| 2026-05-04 09:37 | 31.44352 | 14.96208 | 33207 ft | 477 kts | 43° |
| 2026-05-04 09:38 | 31.48693 | 15.02013 | 33205 ft | 477 kts | 43° |
| 2026-05-04 09:38 | 31.53056 | 15.07854 | 33203 ft | 476 kts | 43° |
| 2026-05-04 09:39 | 31.57427 | 15.13715 | 33202 ft | 475 kts | 43° |
| 2026-05-04 09:39 | 31.61762 | 15.19534 | 33203 ft | 475 kts | 43° |
| 2026-05-04 09:40 | 31.66073 | 15.25334 | 33203 ft | 474 kts | 43° |
| 2026-05-04 09:40 | 31.70427 | 15.31198 | 33204 ft | 475 kts | 43° |
| 2026-05-04 09:42 | 31.87716 | 15.54577 | 33206 ft | 474 kts | 42° |
| 2026-05-04 09:43 | 31.91997 | 15.60389 | 33210 ft | 473 kts | 42° |
| 2026-05-04 09:43 | 31.96308 | 15.66247 | 33208 ft | 473 kts | 43° |
| 2026-05-04 09:44 | 32.00596 | 15.72087 | 33216 ft | 472 kts | 43° |
| 2026-05-04 09:46 | 32.17757 | 15.95547 | 33236 ft | 472 kts | 43° |
| 2026-05-04 09:46 | 32.22015 | 16.01390 | 33240 ft | 473 kts | 42° |
| 2026-05-04 09:47 | 32.26301 | 16.07283 | 33242 ft | 472 kts | 42° |
| 2026-05-04 09:49 | 32.43299 | 16.30740 | 33243 ft | 471 kts | 42° |
| 2026-05-04 09:51 | 32.58115 | 16.51306 | 33242 ft | 469 kts | 41° |
| 2026-05-04 09:51 | 32.62351 | 16.57210 | 33243 ft | 469 kts | 41° |
| 2026-05-04 09:52 | 32.66548 | 16.63067 | 33238 ft | 469 kts | 41° |
| 2026-05-04 09:52 | 32.70754 | 16.68945 | 33237 ft | 468 kts | 41° |
| 2026-05-04 09:53 | 32.74972 | 16.74847 | 33241 ft | 468 kts | 41° |
| 2026-05-04 09:53 | 32.79170 | 16.80736 | 33242 ft | 468 kts | 41° |
| 2026-05-04 09:54 | 32.83362 | 16.86620 | 33240 ft | 468 kts | 41° |
| 2026-05-04 09:54 | 32.87561 | 16.92526 | 33239 ft | 468 kts | 41° |
| 2026-05-04 09:55 | 32.91752 | 16.98431 | 33241 ft | 468 kts | 41° |
| 2026-05-04 09:55 | 32.95935 | 17.04337 | 33240 ft | 468 kts | 41° |
| 2026-05-04 09:56 | 33.00124 | 17.10257 | 33240 ft | 468 kts | 41° |
| 2026-05-04 09:56 | 33.04295 | 17.16161 | 33241 ft | 466 kts | 41° |
| 2026-05-04 09:57 | 33.08442 | 17.22040 | 33244 ft | 467 kts | 41° |
| 2026-05-04 09:57 | 33.12626 | 17.27982 | 33240 ft | 467 kts | 41° |
| 2026-05-04 09:58 | 33.16778 | 17.33891 | 33242 ft | 466 kts | 41° |
| 2026-05-04 09:58 | 33.20925 | 17.39798 | 33237 ft | 466 kts | 41° |
| 2026-05-04 10:00 | 33.37529 | 17.63553 | 33233 ft | 466 kts | 40° |
| 2026-05-04 10:04 | 33.66442 | 18.05291 | 33222 ft | 465 kts | 41° |
| 2026-05-04 10:04 | 33.70554 | 18.11263 | 33222 ft | 466 kts | 41° |
| 2026-05-04 10:05 | 33.74683 | 18.17274 | 33221 ft | 465 kts | 41° |
| 2026-05-04 10:05 | 33.78796 | 18.23271 | 33223 ft | 466 kts | 41° |
| 2026-05-04 10:06 | 33.82902 | 18.29270 | 33221 ft | 465 kts | 41° |
| 2026-05-04 10:06 | 33.87011 | 18.35278 | 33223 ft | 466 kts | 41° |
| 2026-05-04 10:08 | 34.01321 | 18.56291 | 33227 ft | 464 kts | 42° |
| 2026-05-04 10:08 | 34.05423 | 18.62334 | 33227 ft | 464 kts | 42° |
| 2026-05-04 10:09 | 34.09494 | 18.68340 | 33220 ft | 465 kts | 43° |
| 2026-05-04 10:09 | 34.13600 | 18.74415 | 33218 ft | 465 kts | 43° |
| 2026-05-04 10:10 | 34.17668 | 18.80438 | 33226 ft | 465 kts | 43° |
| 2026-05-04 10:10 | 34.21735 | 18.86469 | 33221 ft | 465 kts | 43° |
| 2026-05-04 10:11 | 34.25812 | 18.92525 | 33220 ft | 464 kts | 43° |
| 2026-05-04 10:11 | 34.29878 | 18.98574 | 33218 ft | 464 kts | 44° |
| 2026-05-04 10:12 | 34.34022 | 19.04567 | 33224 ft | 461 kts | 40° |
| 2026-05-04 10:12 | 34.38445 | 19.10174 | 33232 ft | 461 kts | 39° |
| 2026-05-04 10:13 | 34.42890 | 19.15730 | 33213 ft | 462 kts | 39° |
| 2026-05-04 10:13 | 34.47369 | 19.21346 | 33219 ft | 462 kts | 39° |
| 2026-05-04 10:14 | 34.51810 | 19.26926 | 33229 ft | 461 kts | 39° |
| 2026-05-04 10:16 | 34.69600 | 19.49387 | 33208 ft | 462 kts | 40° |
| 2026-05-04 10:16 | 34.74044 | 19.55022 | 33205 ft | 461 kts | 40° |
| 2026-05-04 10:17 | 34.78470 | 19.60641 | 33212 ft | 462 kts | 40° |
| 2026-05-04 10:19 | 34.96169 | 19.83211 | 33208 ft | 462 kts | 41° |
| 2026-05-04 10:19 | 35.00579 | 19.88860 | 33201 ft | 461 kts | 41° |
| 2026-05-04 10:20 | 35.04983 | 19.94510 | 33202 ft | 461 kts | 41° |
| 2026-05-04 10:20 | 35.09399 | 20.00185 | 33198 ft | 461 kts | 41° |
| 2026-05-04 10:21 | 35.13814 | 20.05868 | 33195 ft | 461 kts | 40° |
| 2026-05-04 10:21 | 35.18234 | 20.11566 | 33195 ft | 461 kts | 40° |
| 2026-05-04 10:22 | 35.24809 | 20.20063 | 33198 ft | 460 kts | 40° |
| 2026-05-04 10:23 | 35.29187 | 20.25731 | 33194 ft | 459 kts | 40° |
| 2026-05-04 10:25 | 35.46694 | 20.48492 | 33191 ft | 459 kts | 40° |
| 2026-05-04 10:25 | 35.51073 | 20.54208 | 33190 ft | 459 kts | 40° |
| 2026-05-04 10:26 | 35.55421 | 20.59893 | 33190 ft | 458 kts | 39° |
| 2026-05-04 10:26 | 35.59774 | 20.65597 | 33188 ft | 458 kts | 40° |
| 2026-05-04 10:27 | 35.64140 | 20.71328 | 33186 ft | 458 kts | 40° |
| 2026-05-04 10:27 | 35.68481 | 20.77034 | 33186 ft | 457 kts | 40° |
| 2026-05-04 10:28 | 35.72800 | 20.82723 | 33184 ft | 457 kts | 39° |
| 2026-05-04 10:28 | 35.77129 | 20.88430 | 33181 ft | 457 kts | 39° |
| 2026-05-04 10:29 | 35.81475 | 20.94170 | 33179 ft | 457 kts | 39° |
| 2026-05-04 10:29 | 35.85772 | 20.99863 | 33179 ft | 456 kts | 39° |
| 2026-05-04 10:30 | 35.90091 | 21.05588 | 33176 ft | 455 kts | 39° |
| 2026-05-04 10:30 | 35.94391 | 21.11296 | 33175 ft | 455 kts | 39° |
| 2026-05-04 10:31 | 35.98706 | 21.17036 | 33173 ft | 456 kts | 39° |
| 2026-05-04 10:32 | 36.13748 | 21.37127 | 33173 ft | 455 kts | 38° |
| 2026-05-04 10:33 | 36.18018 | 21.42852 | 33177 ft | 455 kts | 38° |
| 2026-05-04 10:33 | 36.22307 | 21.48612 | 33169 ft | 454 kts | 38° |
| 2026-05-04 10:34 | 36.26562 | 21.54339 | 33167 ft | 453 kts | 38° |
| 2026-05-04 10:34 | 36.30839 | 21.60102 | 33171 ft | 454 kts | 38° |
| 2026-05-04 10:35 | 36.35087 | 21.65837 | 33164 ft | 454 kts | 38° |
| 2026-05-04 10:35 | 36.39383 | 21.71645 | 33164 ft | 454 kts | 38° |
| 2026-05-04 10:36 | 36.43633 | 21.77407 | 33163 ft | 453 kts | 38° |
| 2026-05-04 10:36 | 36.47876 | 21.83164 | 33155 ft | 453 kts | 38° |
| 2026-05-04 10:37 | 36.52121 | 21.88933 | 33160 ft | 453 kts | 38° |
| 2026-05-04 10:37 | 36.56367 | 21.94717 | 33156 ft | 453 kts | 38° |
| 2026-05-04 10:39 | 36.71148 | 22.14922 | 33149 ft | 451 kts | 38° |
| 2026-05-04 10:40 | 36.75364 | 22.20711 | 33144 ft | 451 kts | 38° |
| 2026-05-04 10:40 | 36.79579 | 22.26509 | 33142 ft | 450 kts | 38° |
| 2026-05-04 10:41 | 36.83769 | 22.32283 | 33135 ft | 450 kts | 38° |
| 2026-05-04 10:41 | 36.87968 | 22.38074 | 33154 ft | 451 kts | 38° |
| 2026-05-04 10:42 | 36.92175 | 22.43891 | 33140 ft | 450 kts | 38° |
| 2026-05-04 10:42 | 36.96356 | 22.49685 | 33149 ft | 450 kts | 38° |
| 2026-05-04 10:43 | 37.00544 | 22.55495 | 33133 ft | 448 kts | 38° |
| 2026-05-04 10:45 | 37.17193 | 22.78695 | 33132 ft | 447 kts | 39° |
| 2026-05-04 10:45 | 37.21363 | 22.84532 | 33126 ft | 448 kts | 39° |
| 2026-05-04 10:46 | 37.25503 | 22.90336 | 33143 ft | 446 kts | 39° |
| 2026-05-04 10:46 | 37.29630 | 22.96136 | 33164 ft | 447 kts | 39° |
| 2026-05-04 10:47 | 37.33742 | 23.01923 | 33145 ft | 445 kts | 39° |
| 2026-05-04 10:47 | 37.37871 | 23.07742 | 33143 ft | 446 kts | 39° |
| 2026-05-04 10:49 | 37.54286 | 23.30983 | 33135 ft | 445 kts | 39° |
| 2026-05-04 10:50 | 37.58358 | 23.36775 | 33147 ft | 445 kts | 40° |
| 2026-05-04 10:52 | 37.74660 | 23.60057 | 33142 ft | 442 kts | 40° |
| 2026-05-04 10:52 | 37.78711 | 23.65861 | 33141 ft | 443 kts | 41° |
| 2026-05-04 10:54 | 37.90112 | 23.89400 | 33149 ft | 466 kts | 67° |
| 2026-05-04 10:54 | 37.90857 | 23.93378 | 33149 ft | 468 kts | 71° |
| 2026-05-04 10:56 | 37.95751 | 24.25428 | 33153 ft | 464 kts | 72° |
| 2026-05-04 10:57 | 37.96977 | 24.33470 | 33148 ft | 465 kts | 72° |
| 2026-05-04 10:57 | 37.98318 | 24.41398 | 33145 ft | 460 kts | 67° |
| 2026-05-04 10:58 | 38.00517 | 24.48897 | 33140 ft | 453 kts | 58° |
| 2026-05-04 10:58 | 38.03653 | 24.55787 | 33139 ft | 447 kts | 49° |
| 2026-05-04 10:59 | 38.07482 | 24.61921 | 33149 ft | 446 kts | 44° |
| 2026-05-04 10:59 | 38.11476 | 24.67900 | 33158 ft | 447 kts | 45° |
| 2026-05-04 11:00 | 38.15464 | 24.73937 | 33153 ft | 447 kts | 45° |
| 2026-05-04 11:02 | 38.31298 | 24.98210 | 33146 ft | 446 kts | 46° |
| 2026-05-04 11:05 | 38.60673 | 25.43707 | 33142 ft | 441 kts | 48° |
| 2026-05-04 11:06 | 38.64566 | 25.49783 | 33149 ft | 441 kts | 49° |
| 2026-05-04 11:06 | 38.68429 | 25.55824 | 33140 ft | 440 kts | 49° |
| 2026-05-04 11:10 | 38.95432 | 25.98342 | 33106 ft | 440 kts | 50° |
| 2026-05-04 11:12 | 39.10703 | 26.22664 | 33106 ft | 437 kts | 50° |
| 2026-05-04 11:12 | 39.14516 | 26.28758 | 33091 ft | 436 kts | 50° |
| 2026-05-04 11:13 | 39.18349 | 26.34789 | 33086 ft | 436 kts | 48° |
| 2026-05-04 11:13 | 39.22576 | 26.40332 | 33084 ft | 435 kts | 42° |
| 2026-05-04 11:14 | 39.27406 | 26.44961 | 33079 ft | 434 kts | 34° |
| 2026-05-04 11:16 | 39.47250 | 26.62547 | 33073 ft | 432 kts | 35° |
| 2026-05-04 11:16 | 39.52146 | 26.66955 | 33068 ft | 431 kts | 36° |
| 2026-05-04 11:17 | 39.57066 | 26.71388 | 33076 ft | 430 kts | 36° |
| 2026-05-04 11:19 | 39.72091 | 26.89656 | 31903 ft | 415 kts | 46° |
| 2026-05-04 11:19 | 39.74059 | 26.92311 | 31647 ft | 414 kts | 46° |
| 2026-05-04 11:19 | 39.76075 | 26.95027 | 31385 ft | 413 kts | 46° |
| 2026-05-04 11:19 | 39.78054 | 26.97693 | 31127 ft | 412 kts | 46° |
| 2026-05-04 11:20 | 39.80037 | 27.00361 | 30850 ft | 412 kts | 46° |
| 2026-05-04 11:20 | 39.82014 | 27.03021 | 30524 ft | 412 kts | 46° |
| 2026-05-04 11:20 | 39.84015 | 27.05717 | 30128 ft | 411 kts | 46° |
| 2026-05-04 11:20 | 39.85992 | 27.08385 | 29697 ft | 413 kts | 46° |
| 2026-05-04 11:22 | 40.00146 | 27.27550 | 25913 ft | 430 kts | 44° |
| 2026-05-04 11:22 | 40.02218 | 27.30366 | 25317 ft | 428 kts | 44° |
| 2026-05-04 11:23 | 40.04258 | 27.33140 | 24742 ft | 423 kts | 44° |
| 2026-05-04 11:23 | 40.06274 | 27.35883 | 24394 ft | 421 kts | 44° |
| 2026-05-04 11:24 | 40.18273 | 27.52245 | 22190 ft | 409 kts | 43° |
| 2026-05-04 11:25 | 40.20217 | 27.54908 | 21817 ft | 406 kts | 43° |
| 2026-05-04 11:25 | 40.22155 | 27.57561 | 21443 ft | 403 kts | 43° |
| 2026-05-04 11:25 | 40.24066 | 27.60182 | 21073 ft | 400 kts | 43° |
| 2026-05-04 11:26 | 40.27887 | 27.65426 | 20247 ft | 394 kts | 44° |
| 2026-05-04 11:27 | 40.40670 | 27.83048 | 17154 ft | 369 kts | 43° |
| 2026-05-04 11:28 | 40.42439 | 27.85493 | 16740 ft | 366 kts | 43° |
| 2026-05-04 11:28 | 40.44170 | 27.87890 | 16318 ft | 362 kts | 43° |
| 2026-05-04 11:28 | 40.45879 | 27.90256 | 15913 ft | 358 kts | 43° |
| 2026-05-04 11:28 | 40.47578 | 27.92613 | 15519 ft | 355 kts | 43° |
| 2026-05-04 11:29 | 40.49276 | 27.94970 | 15102 ft | 351 kts | 43° |
| 2026-05-04 11:29 | 40.50934 | 27.97271 | 14708 ft | 348 kts | 42° |
| 2026-05-04 11:29 | 40.52587 | 27.99568 | 14300 ft | 344 kts | 42° |
| 2026-05-04 11:29 | 40.54227 | 28.01847 | 13897 ft | 341 kts | 42° |
| 2026-05-04 11:31 | 40.65364 | 28.17364 | 10854 ft | 324 kts | 43° |
| 2026-05-04 11:33 | 40.74757 | 28.30535 | 10100 ft | 246 kts | 41° |
| 2026-05-04 11:33 | 40.75928 | 28.32172 | 9942 ft | 244 kts | 41° |
| 2026-05-04 11:33 | 40.77088 | 28.33791 | 9611 ft | 245 kts | 41° |
| 2026-05-04 11:34 | 40.78268 | 28.35447 | 9297 ft | 245 kts | 41° |
| 2026-05-04 11:34 | 40.79433 | 28.37084 | 8994 ft | 245 kts | 41° |
| 2026-05-04 11:34 | 40.80589 | 28.38711 | 8696 ft | 244 kts | 41° |
| 2026-05-04 11:34 | 40.81753 | 28.40351 | 8398 ft | 244 kts | 41° |
| 2026-05-04 11:35 | 40.82897 | 28.41963 | 8185 ft | 239 kts | 41° |
| 2026-05-04 11:35 | 40.84002 | 28.43528 | 8134 ft | 227 kts | 41° |
| 2026-05-04 11:35 | 40.85061 | 28.45031 | 8072 ft | 224 kts | 43° |
| 2026-05-04 11:35 | 40.85946 | 28.46775 | 7810 ft | 229 kts | 57° |
| 2026-05-04 11:36 | 40.86533 | 28.48756 | 7469 ft | 234 kts | 64° |
| 2026-05-04 11:36 | 40.87053 | 28.50778 | 7162 ft | 234 kts | 64° |
| 2026-05-04 11:36 | 40.87567 | 28.52802 | 6857 ft | 233 kts | 64° |
| 2026-05-04 11:36 | 40.88085 | 28.54828 | 6551 ft | 233 kts | 64° |
| 2026-05-04 11:37 | 40.88609 | 28.56857 | 6242 ft | 233 kts | 64° |
| 2026-05-04 11:37 | 40.89128 | 28.58863 | 5951 ft | 232 kts | 64° |
| 2026-05-04 11:37 | 40.89646 | 28.60869 | 5666 ft | 231 kts | 64° |
| 2026-05-04 11:37 | 40.90164 | 28.62870 | 5384 ft | 230 kts | 64° |
| 2026-05-04 11:38 | 40.90678 | 28.64856 | 5102 ft | 229 kts | 64° |
| 2026-05-04 11:38 | 40.91194 | 28.66850 | 4820 ft | 228 kts | 65° |
| 2026-05-04 11:38 | 40.91826 | 28.68735 | 4521 ft | 221 kts | 47° |
| 2026-05-04 11:38 | 40.92957 | 28.70014 | 4226 ft | 213 kts | 26° |
| 2026-05-04 11:39 | 40.94260 | 28.70956 | 4010 ft | 210 kts | 25° |
| 2026-05-04 11:39 | 40.95552 | 28.71878 | 3992 ft | 212 kts | 25° |
| 2026-05-04 11:40 | 41.03971 | 28.73232 | 3992 ft | 205 kts | 359° |
| 2026-05-04 11:41 | 41.05402 | 28.73198 | 3993 ft | 205 kts | 359° |
| 2026-05-04 11:41 | 41.06839 | 28.73168 | 3984 ft | 205 kts | 358° |
| 2026-05-04 11:41 | 41.08263 | 28.73138 | 3821 ft | 205 kts | 358° |
| 2026-05-04 11:41 | 41.09677 | 28.73110 | 3549 ft | 200 kts | 358° |
| 2026-05-04 11:42 | 41.11034 | 28.73082 | 3282 ft | 191 kts | 359° |
| 2026-05-04 11:42 | 41.12341 | 28.73054 | 3032 ft | 182 kts | 359° |
| 2026-05-04 11:42 | 41.13562 | 28.73028 | 2826 ft | 170 kts | 359° |
| 2026-05-04 11:42 | 41.14726 | 28.73005 | 2586 ft | 161 kts | 359° |
| 2026-05-04 11:43 | 41.15807 | 28.72983 | 2373 ft | 151 kts | 358° |
| 2026-05-04 11:43 | 41.16828 | 28.72963 | 2164 ft | 143 kts | 359° |
| 2026-05-04 11:43 | 41.17828 | 28.72945 | 1984 ft | 142 kts | 359° |
| 2026-05-04 11:43 | 41.18814 | 28.72925 | 1809 ft | 141 kts | 358° |
| 2026-05-04 11:44 | 41.19800 | 28.72906 | 1625 ft | 141 kts | 358° |
| 2026-05-04 11:44 | 41.20811 | 28.72885 | 1438 ft | 142 kts | 358° |
| 2026-05-04 11:44 | 41.21827 | 28.72865 | 1237 ft | 142 kts | 358° |
| 2026-05-04 11:44 | 41.22812 | 28.72846 | 1039 ft | 142 kts | 357° |
| 2026-05-04 11:45 | 41.23805 | 28.72827 | 844 ft | 142 kts | 357° |
| 2026-05-04 11:45 | 41.24804 | 28.72802 | 659 ft | 142 kts | 357° |
| 2026-05-04 11:45 | 41.25789 | 28.72785 | 463 ft | 142 kts | 356° |
| 2026-05-04 11:45 | 41.26782 | 28.72765 | 346 ft | 137 kts | 356° |
| 2026-05-04 11:46 | 41.27625 | 28.72746 | 343 ft | 91 kts | 359° |
| 2026-05-04 11:46 | 41.27919 | 28.72765 | 343 ft | 4 kts | 12° |
| 2026-05-04 11:46 | 41.27968 | 28.72780 | 343 ft | 10 kts | 16° |
| 2026-05-04 11:46 | 41.28040 | 28.72824 | 343 ft | 9 kts | 27° |
| 2026-05-04 11:47 | 41.28105 | 28.72870 | 343 ft | 9 kts | 39° |
| 2026-05-04 11:47 | 41.28102 | 28.72949 | 343 ft | 14 kts | 149° |
| 2026-05-04 11:47 | 41.27958 | 28.72968 | 343 ft | 18 kts | 179° |
| 2026-05-04 11:47 | 41.27823 | 28.72971 | 343 ft | 20 kts | 179° |
| 2026-05-04 11:48 | 41.27714 | 28.72972 | 343 ft | 15 kts | 179° |
| 2026-05-04 11:48 | 41.27599 | 28.72975 | 343 ft | 17 kts | 179° |
| 2026-05-04 11:48 | 41.27490 | 28.72977 | 343 ft | 12 kts | 179° |
| 2026-05-04 11:48 | 41.27387 | 28.72979 | 343 ft | 16 kts | 179° |
| 2026-05-04 11:49 | 41.27264 | 28.72981 | 343 ft | 18 kts | 179° |
| 2026-05-04 11:49 | 41.27127 | 28.72984 | 343 ft | 21 kts | 179° |
| 2026-05-04 11:49 | 41.27007 | 28.72986 | 343 ft | 14 kts | 179° |
| 2026-05-04 11:49 | 41.26905 | 28.72989 | 343 ft | 9 kts | 177° |
| 2026-05-04 11:50 | 41.26857 | 28.73050 | 343 ft | 12 kts | 101° |
| 2026-05-04 11:50 | 41.26856 | 28.73165 | 343 ft | 12 kts | 89° |
| 2026-05-04 11:50 | 41.26858 | 28.73297 | 343 ft | 15 kts | 89° |
| 2026-05-04 11:50 | 41.26860 | 28.73429 | 343 ft | 14 kts | 88° |
| 2026-05-04 11:51 | 41.26848 | 28.73512 | 343 ft | 5 kts | 142° |
| 2026-05-04 11:51 | 41.26810 | 28.73530 | 343 ft | 4 kts | 175° |
| 2026-05-04 11:51 | 41.26790 | 28.73534 | 343 ft | 2 kts | 174° |
| 2026-05-04 11:51 | 41.26778 | 28.73534 | 343 ft | 1 kts | 180° |
| 2026-05-04 11:52 | 41.26776 | 28.73534 | 343 ft | 0 kts | 180° |